aviador You're here:

SCCF Decoded Metar

CALAMA in CHILE
Report Time2017-10-20 12:00:00
UTC Time2017-10-20 12:30:44
Flight Rules vfr VFR
Wind100° at 22 kt
W.Decomp.*RWY 10: 21.9 kt HW 1.5 kt RCW
W.Rank100° ranks 2
Current wind is above 100° avg. (14.4)
Visibility9999 m
Phenomena:N/A
Clouds:N/A
Expected CloudBase > 12,400 ft AGL from Temp-Dew spread
CeilingNone
Temp14°C (ISA +14)
Dew Point-17°C (10% RH)
AAT2.6°C
QNH1024 hPa
Density Alt8,868 ft
Elevation7,585 ft
Report Wrong Elevation
Raw Report
SCCF 201200Z 10022KT CAVOK 14/M17 Q1024=

Extra information for SCCF:More info

Metar Taf Metar & Taf Last 4 Metars F.Rules Stats Wind Profile Meteogram Temp Stats Airport Information Weather charts Add Link Nearby VenuesMetar ALERT Operation Metar Decoded Social comments